SBPB/PHB METAR and TAF weather

Enter ICAO airport designator
Station Type Date Time Source
SBPB METAR 2022/11/30 10:15 UTC NOAA

SBPB 301015Z 15009KT 9999 FEW020 FEW025TCU 27/25 Q1008


Station Type Date Time Source
SBPB Decoded METAR 2022/11/30 10:15 UTC NOAA

Parnaiba Aeroporto , Brazil (SBPB) 02-55S 041-45W
Nov 30, 2022 - 05:15 AM EST / 2022.11.30 1015 UTC
Wind: from the SSE (150 degrees) at 10 MPH (9 KT):0
Visibility: greater than 7 mile(s):0
Sky conditions: mostly clear
Weather: Towering cumulus clouds observed
Temperature: 80 F (27 C)
Dew Point: 77 F (25 C)
Relative Humidity: 88%
Pressure (altimeter): 29.77 in. Hg (1008 hPa)
ob: SBPB 301015Z 15009KT 9999 FEW020 FEW025TCU 27/25 Q1008
cycle: 10

Station Type Date Time Source
SBPB TAF 2022/11/30 12:09 UTC NOAA

TAF SBPB 300807Z 3012/3024 12010KT 9999 SCT020 TX33/3015Z TN29/3021Z PROB30 3018/3020 TS BKN020 FEW025CB
RMK PHI

Example: see airport list